sensor_id;sensor_type;location;lat;lon;timestamp;temperature;humidity
20654;DHT22;21083;50.898;4.902;2023-04-07T00:01:11;9.90;99.90
20654;DHT22;21083;50.898;4.902;2023-04-07T00:03:38;10.00;99.90
20654;DHT22;21083;50.898;4.902;2023-04-07T00:06:06;10.00;99.90
20654;DHT22;21083;50.898;4.902;2023-04-07T00:08:34;9.90;99.90
20654;DHT22;21083;50.898;4.902;2023-04-07T00:11:01;9.90;99.90
20654;DHT22;21083;50.898;4.902;2023-04-07T00:13:28;9.90;99.90
20654;DHT22;21083;50.898;4.902;2023-04-07T00:15:55;9.80;99.90
20654;DHT22;21083;50.898;4.902;2023-04-07T00:18:22;9.70;99.90
20654;DHT22;21083;50.898;4.902;2023-04-07T00:20:49;9.60;99.90
20654;DHT22;21083;50.898;4.902;2023-04-07T00:23:16;9.50;99.90
20654;DHT22;21083;50.898;4.902;2023-04-07T00:25:44;9.70;99.90
20654;DHT22;21083;50.898;4.902;2023-04-07T00:28:13;9.60;99.90
20654;DHT22;21083;50.898;4.902;2023-04-07T00:30:40;9.70;99.90
20654;DHT22;21083;50.898;4.902;2023-04-07T00:33:07;9.60;99.90
20654;DHT22;21083;50.898;4.902;2023-04-07T00:35:33;9.50;99.90
20654;DHT22;21083;50.898;4.902;2023-04-07T00:38:00;9.40;99.90
20654;DHT22;21083;50.898;4.902;2023-04-07T00:40:28;9.30;99.90
20654;DHT22;21083;50.898;4.902;2023-04-07T00:42:56;9.20;99.90
20654;DHT22;21083;50.898;4.902;2023-04-07T00:45:23;9.30;99.90
20654;DHT22;21083;50.898;4.902;2023-04-07T00:47:50;9.30;99.90
20654;DHT22;21083;50.898;4.902;2023-04-07T00:50:18;9.30;99.90
20654;DHT22;21083;50.898;4.902;2023-04-07T00:52:45;9.40;99.90
20654;DHT22;21083;50.898;4.902;2023-04-07T00:55:11;9.30;99.90
20654;DHT22;21083;50.898;4.902;2023-04-07T00:57:38;9.20;99.90
20654;DHT22;21083;50.898;4.902;2023-04-07T01:00:09;9.20;99.90
20654;DHT22;21083;50.898;4.902;2023-04-07T01:02:40;9.40;99.90
20654;DHT22;21083;50.898;4.902;2023-04-07T01:05:13;9.40;99.90
20654;DHT22;21083;50.898;4.902;2023-04-07T01:07:49;9.30;99.90
20654;DHT22;21083;50.898;4.902;2023-04-07T01:10:26;9.30;99.90
20654;DHT22;21083;50.898;4.902;2023-04-07T01:12:56;9.10;99.90
20654;DHT22;21083;50.898;4.902;2023-04-07T01:15:29;9.20;99.90
20654;DHT22;21083;50.898;4.902;2023-04-07T01:18:02;9.10;99.90
20654;DHT22;21083;50.898;4.902;2023-04-07T01:20:31;9.10;99.90
20654;DHT22;21083;50.898;4.902;2023-04-07T01:23:03;9.30;99.90
20654;DHT22;21083;50.898;4.902;2023-04-07T01:25:59;9.20;99.90
20654;DHT22;21083;50.898;4.902;2023-04-07T01:28:42;9.30;99.90
20654;DHT22;21083;50.898;4.902;2023-04-07T01:31:12;9.30;99.90
20654;DHT22;21083;50.898;4.902;2023-04-07T01:33:44;9.40;99.90
20654;DHT22;21083;50.898;4.902;2023-04-07T01:36:11;9.20;99.90
20654;DHT22;21083;50.898;4.902;2023-04-07T01:38:39;9.20;99.90
20654;DHT22;21083;50.898;4.902;2023-04-07T01:41:08;9.20;99.90
20654;DHT22;21083;50.898;4.902;2023-04-07T01:43:37;9.20;99.90
20654;DHT22;21083;50.898;4.902;2023-04-07T01:46:05;9.10;99.90
20654;DHT22;21083;50.898;4.902;2023-04-07T01:48:34;9.30;99.90
20654;DHT22;21083;50.898;4.902;2023-04-07T01:51:03;9.40;99.90
20654;DHT22;21083;50.898;4.902;2023-04-07T01:53:31;9.50;99.90
20654;DHT22;21083;50.898;4.902;2023-04-07T01:55:58;9.30;99.90
20654;DHT22;21083;50.898;4.902;2023-04-07T01:58:25;9.40;99.90
20654;DHT22;21083;50.898;4.902;2023-04-07T02:00:52;9.40;99.90
20654;DHT22;21083;50.898;4.902;2023-04-07T02:03:22;9.50;99.90
20654;DHT22;21083;50.898;4.902;2023-04-07T02:05:53;9.50;99.90
20654;DHT22;21083;50.898;4.902;2023-04-07T02:08:20;9.50;99.90
20654;DHT22;21083;50.898;4.902;2023-04-07T02:10:49;9.50;99.90
20654;DHT22;21083;50.898;4.902;2023-04-07T02:13:19;9.50;99.90
20654;DHT22;21083;50.898;4.902;2023-04-07T02:15:47;9.40;99.90
20654;DHT22;21083;50.898;4.902;2023-04-07T02:18:16;9.40;99.90
20654;DHT22;21083;50.898;4.902;2023-04-07T02:20:45;9.20;99.90
20654;DHT22;21083;50.898;4.902;2023-04-07T02:23:13;9.20;99.90
20654;DHT22;21083;50.898;4.902;2023-04-07T02:25:40;9.10;99.90
20654;DHT22;21083;50.898;4.902;2023-04-07T02:28:07;8.90;99.90
20654;DHT22;21083;50.898;4.902;2023-04-07T02:30:34;9.00;99.90
20654;DHT22;21083;50.898;4.902;2023-04-07T02:33:01;9.00;99.90
20654;DHT22;21083;50.898;4.902;2023-04-07T02:35:28;9.00;99.90
20654;DHT22;21083;50.898;4.902;2023-04-07T02:37:55;9.10;99.90
20654;DHT22;21083;50.898;4.902;2023-04-07T02:40:23;9.20;99.90
20654;DHT22;21083;50.898;4.902;2023-04-07T02:42:50;9.20;99.90
20654;DHT22;21083;50.898;4.902;2023-04-07T02:45:17;9.20;99.90
20654;DHT22;21083;50.898;4.902;2023-04-07T02:47:44;9.30;99.90
20654;DHT22;21083;50.898;4.902;2023-04-07T02:50:11;9.40;99.90
20654;DHT22;21083;50.898;4.902;2023-04-07T02:52:37;9.40;99.90
20654;DHT22;21083;50.898;4.902;2023-04-07T02:55:05;9.40;99.90
20654;DHT22;21083;50.898;4.902;2023-04-07T02:57:34;9.30;99.90
20654;DHT22;21083;50.898;4.902;2023-04-07T03:00:01;9.10;99.90
20654;DHT22;21083;50.898;4.902;2023-04-07T03:02:28;9.20;99.90
20654;DHT22;21083;50.898;4.902;2023-04-07T03:04:55;9.30;99.90
20654;DHT22;21083;50.898;4.902;2023-04-07T03:07:22;9.30;99.90
20654;DHT22;21083;50.898;4.902;2023-04-07T03:09:49;9.10;99.90
20654;DHT22;21083;50.898;4.902;2023-04-07T03:12:16;9.10;99.90
20654;DHT22;21083;50.898;4.902;2023-04-07T03:14:44;9.00;99.90
20654;DHT22;21083;50.898;4.902;2023-04-07T03:17:11;9.10;99.90
20654;DHT22;21083;50.898;4.902;2023-04-07T03:19:38;9.00;99.90
20654;DHT22;21083;50.898;4.902;2023-04-07T03:22:05;9.00;99.90
20654;DHT22;21083;50.898;4.902;2023-04-07T03:24:31;9.00;99.90
20654;DHT22;21083;50.898;4.902;2023-04-07T03:26:59;9.00;99.90
20654;DHT22;21083;50.898;4.902;2023-04-07T03:29:26;9.10;99.90
20654;DHT22;21083;50.898;4.902;2023-04-07T03:31:55;9.20;99.90
20654;DHT22;21083;50.898;4.902;2023-04-07T03:34:21;9.10;99.90
20654;DHT22;21083;50.898;4.902;2023-04-07T03:36:48;9.10;99.90
20654;DHT22;21083;50.898;4.902;2023-04-07T03:39:15;9.10;99.90
20654;DHT22;21083;50.898;4.902;2023-04-07T03:41:42;9.00;99.90
20654;DHT22;21083;50.898;4.902;2023-04-07T03:44:09;9.00;99.90
20654;DHT22;21083;50.898;4.902;2023-04-07T03:46:37;9.10;99.90
20654;DHT22;21083;50.898;4.902;2023-04-07T03:49:05;9.20;99.90
20654;DHT22;21083;50.898;4.902;2023-04-07T03:51:32;9.20;99.90
20654;DHT22;21083;50.898;4.902;2023-04-07T03:53:59;9.00;99.90
20654;DHT22;21083;50.898;4.902;2023-04-07T03:56:26;8.90;99.90
20654;DHT22;21083;50.898;4.902;2023-04-07T03:58:53;8.90;99.90
20654;DHT22;21083;50.898;4.902;2023-04-07T04:01:20;8.90;99.90
20654;DHT22;21083;50.898;4.902;2023-04-07T04:03:48;8.80;99.90
20654;DHT22;21083;50.898;4.902;2023-04-07T04:06:16;8.80;99.90
20654;DHT22;21083;50.898;4.902;2023-04-07T04:08:43;8.90;99.90
20654;DHT22;21083;50.898;4.902;2023-04-07T04:11:10;9.00;99.90
20654;DHT22;21083;50.898;4.902;2023-04-07T04:13:37;9.00;99.90
20654;DHT22;21083;50.898;4.902;2023-04-07T04:16:04;9.10;99.90
20654;DHT22;21083;50.898;4.902;2023-04-07T04:18:32;9.00;99.90
20654;DHT22;21083;50.898;4.902;2023-04-07T04:20:58;9.00;99.90
20654;DHT22;21083;50.898;4.902;2023-04-07T04:23:27;9.00;99.90
20654;DHT22;21083;50.898;4.902;2023-04-07T04:25:54;9.10;99.90
20654;DHT22;21083;50.898;4.902;2023-04-07T04:28:21;9.10;99.90
20654;DHT22;21083;50.898;4.902;2023-04-07T04:30:48;9.20;99.90
20654;DHT22;21083;50.898;4.902;2023-04-07T04:33:15;9.20;99.90
20654;DHT22;21083;50.898;4.902;2023-04-07T04:35:42;9.20;99.90
20654;DHT22;21083;50.898;4.902;2023-04-07T04:38:10;9.20;99.90
20654;DHT22;21083;50.898;4.902;2023-04-07T04:40:38;9.20;99.90
20654;DHT22;21083;50.898;4.902;2023-04-07T04:43:05;9.20;99.90
20654;DHT22;21083;50.898;4.902;2023-04-07T04:45:34;9.20;99.90
20654;DHT22;21083;50.898;4.902;2023-04-07T04:48:01;9.20;99.90
20654;DHT22;21083;50.898;4.902;2023-04-07T04:50:28;9.20;99.90
20654;DHT22;21083;50.898;4.902;2023-04-07T04:52:55;9.20;99.90
20654;DHT22;21083;50.898;4.902;2023-04-07T04:55:21;9.20;99.90
20654;DHT22;21083;50.898;4.902;2023-04-07T04:57:50;9.20;99.90
20654;DHT22;21083;50.898;4.902;2023-04-07T05:00:17;9.20;99.90
20654;DHT22;21083;50.898;4.902;2023-04-07T05:02:44;9.20;99.90
20654;DHT22;21083;50.898;4.902;2023-04-07T05:05:12;9.10;99.90
20654;DHT22;21083;50.898;4.902;2023-04-07T05:07:39;9.10;99.90
20654;DHT22;21083;50.898;4.902;2023-04-07T05:10:07;9.00;99.90
20654;DHT22;21083;50.898;4.902;2023-04-07T05:12:35;8.90;99.90
20654;DHT22;21083;50.898;4.902;2023-04-07T05:15:03;8.90;99.90
20654;DHT22;21083;50.898;4.902;2023-04-07T05:17:30;8.90;99.90
20654;DHT22;21083;50.898;4.902;2023-04-07T05:19:57;8.90;99.90
20654;DHT22;21083;50.898;4.902;2023-04-07T05:22:24;8.90;99.90
20654;DHT22;21083;50.898;4.902;2023-04-07T05:24:51;8.90;99.90
20654;DHT22;21083;50.898;4.902;2023-04-07T05:27:18;8.90;99.90
20654;DHT22;21083;50.898;4.902;2023-04-07T05:29:45;8.80;99.90
20654;DHT22;21083;50.898;4.902;2023-04-07T05:32:13;8.90;99.90
20654;DHT22;21083;50.898;4.902;2023-04-07T05:34:40;8.90;99.90
20654;DHT22;21083;50.898;4.902;2023-04-07T05:37:07;8.90;99.90
20654;DHT22;21083;50.898;4.902;2023-04-07T05:39:34;8.70;99.90
20654;DHT22;21083;50.898;4.902;2023-04-07T05:42:00;8.70;99.90
20654;DHT22;21083;50.898;4.902;2023-04-07T05:44:28;8.70;99.90
20654;DHT22;21083;50.898;4.902;2023-04-07T05:46:55;8.80;99.90
20654;DHT22;21083;50.898;4.902;2023-04-07T05:49:23;8.80;99.90
20654;DHT22;21083;50.898;4.902;2023-04-07T05:51:50;8.80;99.90
20654;DHT22;21083;50.898;4.902;2023-04-07T05:54:17;8.80;99.90
20654;DHT22;21083;50.898;4.902;2023-04-07T05:56:44;8.80;99.90
20654;DHT22;21083;50.898;4.902;2023-04-07T05:59:10;8.90;99.90
20654;DHT22;21083;50.898;4.902;2023-04-07T06:01:38;9.00;99.90
20654;DHT22;21083;50.898;4.902;2023-04-07T06:04:04;9.00;99.90
20654;DHT22;21083;50.898;4.902;2023-04-07T06:06:33;9.10;99.90
20654;DHT22;21083;50.898;4.902;2023-04-07T06:09:00;9.10;99.90
20654;DHT22;21083;50.898;4.902;2023-04-07T06:11:27;9.20;99.90
20654;DHT22;21083;50.898;4.902;2023-04-07T06:13:54;9.20;99.90
20654;DHT22;21083;50.898;4.902;2023-04-07T06:16:20;9.20;99.90
20654;DHT22;21083;50.898;4.902;2023-04-07T06:18:47;9.30;99.90
20654;DHT22;21083;50.898;4.902;2023-04-07T06:21:14;9.20;99.90
20654;DHT22;21083;50.898;4.902;2023-04-07T06:23:42;9.00;99.90
20654;DHT22;21083;50.898;4.902;2023-04-07T06:26:10;9.00;99.90
20654;DHT22;21083;50.898;4.902;2023-04-07T06:28:37;9.10;99.90
20654;DHT22;21083;50.898;4.902;2023-04-07T06:31:04;9.10;99.90
20654;DHT22;21083;50.898;4.902;2023-04-07T06:33:31;9.20;99.90
20654;DHT22;21083;50.898;4.902;2023-04-07T06:35:58;9.10;99.90
20654;DHT22;21083;50.898;4.902;2023-04-07T06:38:25;9.20;99.90
20654;DHT22;21083;50.898;4.902;2023-04-07T06:40:53;9.20;99.90
20654;DHT22;21083;50.898;4.902;2023-04-07T06:43:20;9.10;99.90
20654;DHT22;21083;50.898;4.902;2023-04-07T06:45:47;9.10;99.90
20654;DHT22;21083;50.898;4.902;2023-04-07T06:48:14;9.10;99.90
20654;DHT22;21083;50.898;4.902;2023-04-07T06:50:41;9.00;99.90
20654;DHT22;21083;50.898;4.902;2023-04-07T06:53:11;9.00;99.90
20654;DHT22;21083;50.898;4.902;2023-04-07T06:55:38;9.10;99.90
20654;DHT22;21083;50.898;4.902;2023-04-07T06:58:06;9.20;99.90
20654;DHT22;21083;50.898;4.902;2023-04-07T07:00:34;9.30;99.90
20654;DHT22;21083;50.898;4.902;2023-04-07T07:03:01;9.30;99.90
20654;DHT22;21083;50.898;4.902;2023-04-07T07:05:28;9.30;99.90
20654;DHT22;21083;50.898;4.902;2023-04-07T07:07:55;9.50;99.90
20654;DHT22;21083;50.898;4.902;2023-04-07T07:10:22;9.80;99.90
20654;DHT22;21083;50.898;4.902;2023-04-07T07:12:50;10.00;99.90
20654;DHT22;21083;50.898;4.902;2023-04-07T07:15:18;9.80;99.90
20654;DHT22;21083;50.898;4.902;2023-04-07T07:17:45;9.90;99.90
20654;DHT22;21083;50.898;4.902;2023-04-07T07:20:12;10.00;99.90
20654;DHT22;21083;50.898;4.902;2023-04-07T07:22:39;10.00;99.90
20654;DHT22;21083;50.898;4.902;2023-04-07T07:25:06;10.20;99.90
20654;DHT22;21083;50.898;4.902;2023-04-07T07:27:33;10.30;99.90
20654;DHT22;21083;50.898;4.902;2023-04-07T07:30:00;10.30;99.90
20654;DHT22;21083;50.898;4.902;2023-04-07T07:32:28;10.40;99.90
20654;DHT22;21083;50.898;4.902;2023-04-07T07:34:55;10.60;99.90
20654;DHT22;21083;50.898;4.902;2023-04-07T07:37:22;10.60;99.90
20654;DHT22;21083;50.898;4.902;2023-04-07T07:39:49;10.50;99.90
20654;DHT22;21083;50.898;4.902;2023-04-07T07:42:16;10.40;99.90
20654;DHT22;21083;50.898;4.902;2023-04-07T07:44:43;10.40;99.90
20654;DHT22;21083;50.898;4.902;2023-04-07T07:47:10;10.50;99.90
20654;DHT22;21083;50.898;4.902;2023-04-07T07:49:39;10.50;99.90
20654;DHT22;21083;50.898;4.902;2023-04-07T07:52:06;10.70;99.90
20654;DHT22;21083;50.898;4.902;2023-04-07T07:54:33;10.80;99.90
20654;DHT22;21083;50.898;4.902;2023-04-07T07:57:00;10.80;99.90
20654;DHT22;21083;50.898;4.902;2023-04-07T07:59:29;10.90;99.90
20654;DHT22;21083;50.898;4.902;2023-04-07T08:01:55;10.80;99.90
20654;DHT22;21083;50.898;4.902;2023-04-07T08:04:23;10.90;99.90
20654;DHT22;21083;50.898;4.902;2023-04-07T08:06:51;10.90;99.90
20654;DHT22;21083;50.898;4.902;2023-04-07T08:09:19;10.90;99.90
20654;DHT22;21083;50.898;4.902;2023-04-07T08:11:46;10.90;99.90
20654;DHT22;21083;50.898;4.902;2023-04-07T08:14:14;11.00;99.90
20654;DHT22;21083;50.898;4.902;2023-04-07T08:16:41;11.20;99.90
20654;DHT22;21083;50.898;4.902;2023-04-07T08:19:07;11.10;99.90
20654;DHT22;21083;50.898;4.902;2023-04-07T08:21:34;11.10;99.90
20654;DHT22;21083;50.898;4.902;2023-04-07T08:24:03;11.20;99.90
20654;DHT22;21083;50.898;4.902;2023-04-07T08:26:30;11.20;99.90
20654;DHT22;21083;50.898;4.902;2023-04-07T08:28:57;11.00;99.90
20654;DHT22;21083;50.898;4.902;2023-04-07T08:31:24;11.10;99.90
20654;DHT22;21083;50.898;4.902;2023-04-07T08:33:51;11.20;99.90
20654;DHT22;21083;50.898;4.902;2023-04-07T08:36:19;11.40;99.90
20654;DHT22;21083;50.898;4.902;2023-04-07T08:38:46;11.50;99.90
20654;DHT22;21083;50.898;4.902;2023-04-07T08:41:18;11.60;99.90
20654;DHT22;21083;50.898;4.902;2023-04-07T08:43:46;11.50;99.90
20654;DHT22;21083;50.898;4.902;2023-04-07T08:46:14;11.80;99.90
20654;DHT22;21083;50.898;4.902;2023-04-07T08:48:43;11.70;99.90
20654;DHT22;21083;50.898;4.902;2023-04-07T08:51:13;11.40;99.90
20654;DHT22;21083;50.898;4.902;2023-04-07T08:53:42;11.20;99.90
20654;DHT22;21083;50.898;4.902;2023-04-07T08:56:11;11.10;99.90
20654;DHT22;21083;50.898;4.902;2023-04-07T08:58:39;11.30;99.90
20654;DHT22;21083;50.898;4.902;2023-04-07T09:01:07;11.20;99.90
20654;DHT22;21083;50.898;4.902;2023-04-07T09:03:35;11.10;99.90
20654;DHT22;21083;50.898;4.902;2023-04-07T09:06:03;11.10;99.90
20654;DHT22;21083;50.898;4.902;2023-04-07T09:08:30;11.20;99.90
20654;DHT22;21083;50.898;4.902;2023-04-07T09:10:57;11.40;99.90
20654;DHT22;21083;50.898;4.902;2023-04-07T09:13:24;11.60;99.90
20654;DHT22;21083;50.898;4.902;2023-04-07T09:15:53;11.90;99.90
20654;DHT22;21083;50.898;4.902;2023-04-07T09:18:20;12.00;99.90
20654;DHT22;21083;50.898;4.902;2023-04-07T09:20:55;12.30;99.90
20654;DHT22;21083;50.898;4.902;2023-04-07T09:23:30;12.60;99.90
20654;DHT22;21083;50.898;4.902;2023-04-07T09:25:59;13.00;99.90
20654;DHT22;21083;50.898;4.902;2023-04-07T09:28:39;13.30;99.90
20654;DHT22;21083;50.898;4.902;2023-04-07T09:31:08;13.20;99.90
20654;DHT22;21083;50.898;4.902;2023-04-07T09:33:35;13.00;99.90
20654;DHT22;21083;50.898;4.902;2023-04-07T09:36:03;12.30;99.90
20654;DHT22;21083;50.898;4.902;2023-04-07T09:38:36;12.10;99.90
20654;DHT22;21083;50.898;4.902;2023-04-07T09:41:08;11.60;99.90
20654;DHT22;21083;50.898;4.902;2023-04-07T09:43:36;11.20;99.90
20654;DHT22;21083;50.898;4.902;2023-04-07T09:46:12;11.00;99.90
20654;DHT22;21083;50.898;4.902;2023-04-07T09:48:40;10.80;99.90
20654;DHT22;21083;50.898;4.902;2023-04-07T09:51:09;10.90;99.90
20654;DHT22;21083;50.898;4.902;2023-04-07T09:53:45;10.80;99.90
20654;DHT22;21083;50.898;4.902;2023-04-07T09:56:14;10.90;99.90
20654;DHT22;21083;50.898;4.902;2023-04-07T09:58:43;11.10;99.90
20654;DHT22;21083;50.898;4.902;2023-04-07T10:01:12;11.60;99.90
20654;DHT22;21083;50.898;4.902;2023-04-07T10:03:42;12.00;99.90
20654;DHT22;21083;50.898;4.902;2023-04-07T10:06:09;12.50;99.90
20654;DHT22;21083;50.898;4.902;2023-04-07T10:08:39;12.70;99.90
20654;DHT22;21083;50.898;4.902;2023-04-07T10:11:09;12.60;99.90
20654;DHT22;21083;50.898;4.902;2023-04-07T10:13:38;12.40;99.90
20654;DHT22;21083;50.898;4.902;2023-04-07T10:16:07;12.10;99.90
20654;DHT22;21083;50.898;4.902;2023-04-07T10:18:36;12.00;99.90
20654;DHT22;21083;50.898;4.902;2023-04-07T10:21:05;12.00;99.90
20654;DHT22;21083;50.898;4.902;2023-04-07T10:23:46;12.00;99.90
20654;DHT22;21083;50.898;4.902;2023-04-07T10:26:15;12.00;99.90
20654;DHT22;21083;50.898;4.902;2023-04-07T10:28:47;12.20;99.90
20654;DHT22;21083;50.898;4.902;2023-04-07T10:31:15;12.00;99.90
20654;DHT22;21083;50.898;4.902;2023-04-07T10:33:51;11.70;99.90
20654;DHT22;21083;50.898;4.902;2023-04-07T10:36:19;11.80;99.90
20654;DHT22;21083;50.898;4.902;2023-04-07T10:39:20;11.70;99.90
20654;DHT22;21083;50.898;4.902;2023-04-07T10:41:48;11.60;99.90
20654;DHT22;21083;50.898;4.902;2023-04-07T10:44:46;11.50;99.90
20654;DHT22;21083;50.898;4.902;2023-04-07T10:47:17;11.50;99.90
20654;DHT22;21083;50.898;4.902;2023-04-07T10:50:19;11.80;99.90
20654;DHT22;21083;50.898;4.902;2023-04-07T10:52:46;12.10;99.90
20654;DHT22;21083;50.898;4.902;2023-04-07T10:55:33;12.30;99.90
20654;DHT22;21083;50.898;4.902;2023-04-07T10:58:16;12.70;99.90
20654;DHT22;21083;50.898;4.902;2023-04-07T11:03:58;13.30;99.90
20654;DHT22;21083;50.898;4.902;2023-04-07T11:06:27;13.40;99.90
20654;DHT22;21083;50.898;4.902;2023-04-07T11:08:54;13.20;99.90
20654;DHT22;21083;50.898;4.902;2023-04-07T11:11:40;12.60;99.90
20654;DHT22;21083;50.898;4.902;2023-04-07T11:14:07;12.40;99.90
20654;DHT22;21083;50.898;4.902;2023-04-07T11:16:41;12.20;99.90
20654;DHT22;21083;50.898;4.902;2023-04-07T11:19:10;12.30;99.90
20654;DHT22;21083;50.898;4.902;2023-04-07T11:21:38;12.20;99.90
20654;DHT22;21083;50.898;4.902;2023-04-07T11:24:05;12.10;99.90
20654;DHT22;21083;50.898;4.902;2023-04-07T11:26:39;12.20;99.90
20654;DHT22;21083;50.898;4.902;2023-04-07T11:29:06;12.20;99.90
20654;DHT22;21083;50.898;4.902;2023-04-07T11:31:33;12.30;99.90
20654;DHT22;21083;50.898;4.902;2023-04-07T11:34:01;12.30;99.90
20654;DHT22;21083;50.898;4.902;2023-04-07T11:36:30;12.30;99.90
20654;DHT22;21083;50.898;4.902;2023-04-07T11:39:00;12.40;99.90
20654;DHT22;21083;50.898;4.902;2023-04-07T11:41:29;12.40;99.90
20654;DHT22;21083;50.898;4.902;2023-04-07T11:44:04;12.50;99.90
20654;DHT22;21083;50.898;4.902;2023-04-07T11:46:31;12.30;99.90
20654;DHT22;21083;50.898;4.902;2023-04-07T11:49:08;12.30;99.90
20654;DHT22;21083;50.898;4.902;2023-04-07T11:51:36;12.50;99.90
20654;DHT22;21083;50.898;4.902;2023-04-07T11:54:04;12.50;99.90
20654;DHT22;21083;50.898;4.902;2023-04-07T11:56:42;12.60;99.90
20654;DHT22;21083;50.898;4.902;2023-04-07T11:59:18;12.60;99.90
20654;DHT22;21083;50.898;4.902;2023-04-07T12:01:47;12.60;99.90
20654;DHT22;21083;50.898;4.902;2023-04-07T12:04:15;12.70;99.90
20654;DHT22;21083;50.898;4.902;2023-04-07T12:06:42;12.70;99.90
20654;DHT22;21083;50.898;4.902;2023-04-07T12:09:29;12.80;99.90
20654;DHT22;21083;50.898;4.902;2023-04-07T12:11:57;12.60;99.90
20654;DHT22;21083;50.898;4.902;2023-04-07T12:14:24;12.60;99.90
20654;DHT22;21083;50.898;4.902;2023-04-07T12:16:52;12.60;99.90
20654;DHT22;21083;50.898;4.902;2023-04-07T12:19:21;12.60;99.90
20654;DHT22;21083;50.898;4.902;2023-04-07T12:21:48;12.60;99.90
20654;DHT22;21083;50.898;4.902;2023-04-07T12:24:15;12.50;99.90
20654;DHT22;21083;50.898;4.902;2023-04-07T12:26:43;12.40;99.90
20654;DHT22;21083;50.898;4.902;2023-04-07T12:29:10;12.40;99.90
20654;DHT22;21083;50.898;4.902;2023-04-07T12:31:37;12.40;99.90
20654;DHT22;21083;50.898;4.902;2023-04-07T12:34:04;12.40;99.90
20654;DHT22;21083;50.898;4.902;2023-04-07T12:36:31;12.50;99.90
20654;DHT22;21083;50.898;4.902;2023-04-07T12:38:58;12.60;99.90
20654;DHT22;21083;50.898;4.902;2023-04-07T12:41:25;12.70;99.90
20654;DHT22;21083;50.898;4.902;2023-04-07T12:43:53;12.70;99.90
20654;DHT22;21083;50.898;4.902;2023-04-07T12:46:21;12.80;99.90
20654;DHT22;21083;50.898;4.902;2023-04-07T12:48:47;12.60;99.90
20654;DHT22;21083;50.898;4.902;2023-04-07T12:51:16;12.60;99.90
20654;DHT22;21083;50.898;4.902;2023-04-07T12:53:43;12.60;99.90
20654;DHT22;21083;50.898;4.902;2023-04-07T12:56:10;12.60;99.90
20654;DHT22;21083;50.898;4.902;2023-04-07T12:58:37;12.70;99.90
20654;DHT22;21083;50.898;4.902;2023-04-07T13:01:06;12.60;99.90
20654;DHT22;21083;50.898;4.902;2023-04-07T13:03:33;12.70;99.90
20654;DHT22;21083;50.898;4.902;2023-04-07T13:05:59;12.80;99.90
20654;DHT22;21083;50.898;4.902;2023-04-07T13:08:27;12.80;99.90
20654;DHT22;21083;50.898;4.902;2023-04-07T13:10:54;12.90;99.90
20654;DHT22;21083;50.898;4.902;2023-04-07T13:13:21;13.00;99.90
20654;DHT22;21083;50.898;4.902;2023-04-07T13:15:48;13.10;99.90
20654;DHT22;21083;50.898;4.902;2023-04-07T13:18:17;13.20;99.90
20654;DHT22;21083;50.898;4.902;2023-04-07T13:20:44;13.30;99.90
20654;DHT22;21083;50.898;4.902;2023-04-07T13:23:12;13.40;99.90
20654;DHT22;21083;50.898;4.902;2023-04-07T13:25:39;13.60;99.90
20654;DHT22;21083;50.898;4.902;2023-04-07T13:28:06;13.50;99.90
20654;DHT22;21083;50.898;4.902;2023-04-07T13:30:33;13.60;99.90
20654;DHT22;21083;50.898;4.902;2023-04-07T13:33:00;13.80;99.90
20654;DHT22;21083;50.898;4.902;2023-04-07T13:35:29;13.80;99.90
20654;DHT22;21083;50.898;4.902;2023-04-07T13:38:00;13.90;99.90
20654;DHT22;21083;50.898;4.902;2023-04-07T13:40:27;14.00;99.90
20654;DHT22;21083;50.898;4.902;2023-04-07T13:42:54;14.10;99.90
20654;DHT22;21083;50.898;4.902;2023-04-07T13:45:21;14.10;99.90
20654;DHT22;21083;50.898;4.902;2023-04-07T13:47:48;14.10;99.90
20654;DHT22;21083;50.898;4.902;2023-04-07T13:50:15;14.10;99.90
20654;DHT22;21083;50.898;4.902;2023-04-07T13:52:43;14.10;99.90
20654;DHT22;21083;50.898;4.902;2023-04-07T13:55:12;14.10;99.90
20654;DHT22;21083;50.898;4.902;2023-04-07T13:57:40;14.10;99.90
20654;DHT22;21083;50.898;4.902;2023-04-07T14:00:08;14.10;99.90
20654;DHT22;21083;50.898;4.902;2023-04-07T14:02:35;13.80;99.90
20654;DHT22;21083;50.898;4.902;2023-04-07T14:05:01;13.90;99.90
20654;DHT22;21083;50.898;4.902;2023-04-07T14:07:28;13.90;99.90
20654;DHT22;21083;50.898;4.902;2023-04-07T14:09:57;14.10;99.90
20654;DHT22;21083;50.898;4.902;2023-04-07T14:12:24;14.00;99.90
20654;DHT22;21083;50.898;4.902;2023-04-07T14:14:51;13.90;99.90
20654;DHT22;21083;50.898;4.902;2023-04-07T14:17:19;13.80;99.90
20654;DHT22;21083;50.898;4.902;2023-04-07T14:19:47;13.50;99.90
20654;DHT22;21083;50.898;4.902;2023-04-07T14:22:14;13.00;99.90
20654;DHT22;21083;50.898;4.902;2023-04-07T14:24:41;12.60;99.90
20654;DHT22;21083;50.898;4.902;2023-04-07T14:27:09;12.60;99.90
20654;DHT22;21083;50.898;4.902;2023-04-07T14:29:36;12.70;99.90
20654;DHT22;21083;50.898;4.902;2023-04-07T14:32:03;12.70;99.90
20654;DHT22;21083;50.898;4.902;2023-04-07T14:34:30;12.60;99.90
20654;DHT22;21083;50.898;4.902;2023-04-07T14:36:58;12.60;99.90
20654;DHT22;21083;50.898;4.902;2023-04-07T14:39:25;12.50;99.90
20654;DHT22;21083;50.898;4.902;2023-04-07T14:41:52;12.50;99.90
20654;DHT22;21083;50.898;4.902;2023-04-07T14:44:20;12.50;99.90
20654;DHT22;21083;50.898;4.902;2023-04-07T14:46:47;12.50;99.90
20654;DHT22;21083;50.898;4.902;2023-04-07T14:49:14;12.80;99.90
20654;DHT22;21083;50.898;4.902;2023-04-07T14:51:41;13.10;99.90
20654;DHT22;21083;50.898;4.902;2023-04-07T14:54:09;13.60;99.90
20654;DHT22;21083;50.898;4.902;2023-04-07T14:56:37;14.00;99.90
20654;DHT22;21083;50.898;4.902;2023-04-07T14:59:05;14.10;99.90
20654;DHT22;21083;50.898;4.902;2023-04-07T15:01:34;14.00;99.90
20654;DHT22;21083;50.898;4.902;2023-04-07T15:04:01;13.80;99.90
20654;DHT22;21083;50.898;4.902;2023-04-07T15:06:28;13.60;99.90
20654;DHT22;21083;50.898;4.902;2023-04-07T15:08:56;13.50;99.90
20654;DHT22;21083;50.898;4.902;2023-04-07T15:11:23;13.50;99.90
20654;DHT22;21083;50.898;4.902;2023-04-07T15:13:50;13.60;99.90
20654;DHT22;21083;50.898;4.902;2023-04-07T15:16:18;13.60;99.90
20654;DHT22;21083;50.898;4.902;2023-04-07T15:18:47;13.10;99.90
20654;DHT22;21083;50.898;4.902;2023-04-07T15:21:14;13.20;99.90
20654;DHT22;21083;50.898;4.902;2023-04-07T15:23:41;13.40;99.90
20654;DHT22;21083;50.898;4.902;2023-04-07T15:26:08;13.40;99.90
20654;DHT22;21083;50.898;4.902;2023-04-07T15:28:35;13.40;99.90
20654;DHT22;21083;50.898;4.902;2023-04-07T15:31:03;13.50;99.90
20654;DHT22;21083;50.898;4.902;2023-04-07T15:33:33;13.60;99.90
20654;DHT22;21083;50.898;4.902;2023-04-07T15:36:02;13.50;99.90
20654;DHT22;21083;50.898;4.902;2023-04-07T15:38:29;13.70;99.90
20654;DHT22;21083;50.898;4.902;2023-04-07T15:40:56;13.90;99.90
20654;DHT22;21083;50.898;4.902;2023-04-07T15:43:23;13.90;99.90
20654;DHT22;21083;50.898;4.902;2023-04-07T15:45:50;14.10;99.90
20654;DHT22;21083;50.898;4.902;2023-04-07T15:48:17;14.00;99.90